Time;durP1;ratioP1;P1;durP2;ratioP2;P2;SDS_P1;SDS_P2;PMS_P1;PMS_P2;Temp;Humidity;BMP_temperature;BMP_pressure;BME280_temperature;BME280_humidity;BME280_pressure;Samples;Min_cycle;Max_cycle;Signal;HPM_P1;HPM_P2
2023/04/20 00:01:35;;;;;;;;;;;;;;;10.36;100.00;99072.70;131453;1280;5378354;-63
2023/04/20 00:04:38;;;;;;;;;;;;;;;10.48;100.00;99064.16;135534;1279;22519;-63
2023/04/20 00:07:48;;;;;;;;;;;;;;;10.64;100.00;99065.03;135453;1280;22799;-62
2023/04/20 00:10:51;;;;;;;;;;;;;;;10.67;100.00;99066.59;135275;1280;22502;-62
2023/04/20 00:13:53;;;;;;;;;;;;;;;10.59;100.00;99067.91;135539;1280;22588;-64
2023/04/20 00:16:56;;;;;;;;;;;;;;;10.65;100.00;99066.00;135600;1279;25191;-63
2023/04/20 00:19:58;;;;;;;;;;;;;;;10.72;100.00;99065.95;135580;1280;22529;-64
2023/04/20 00:23:00;;;;;;;;;;;;;;;10.72;100.00;99062.63;135601;1280;22521;-64
2023/04/20 00:26:03;;;;;;;;;;;;;;;10.81;100.00;99060.68;135660;1262;22498;-63
2023/04/20 00:29:05;;;;;;;;;;;;;;;10.97;100.00;99056.98;135612;1280;22535;-62
2023/04/20 00:32:08;;;;;;;;;;;;;;;11.07;100.00;99056.33;135600;1280;22511;-64
2023/04/20 00:35:10;;;;;;;;;;;;;;;11.07;100.00;99059.90;135596;1280;22512;-65
2023/04/20 00:38:12;;;;;;;;;;;;;;;11.07;100.00;99058.13;135559;1279;22519;-63
2023/04/20 00:41:15;;;;;;;;;;;;;;;11.14;100.00;99058.63;135476;1262;22631;-63
2023/04/20 00:44:17;;;;;;;;;;;;;;;10.98;100.00;99058.83;135437;1279;22532;-63
2023/04/20 00:47:20;;;;;;;;;;;;;;;10.93;100.00;99061.21;135536;1280;22524;-63
2023/04/20 00:50:22;;;;;;;;;;;;;;;10.87;100.00;99061.08;135579;1280;22536;-64
2023/04/20 00:53:24;;;;;;;;;;;;;;;10.79;100.00;99062.92;135624;1280;22507;-63
2023/04/20 00:56:27;;;;;;;;;;;;;;;10.69;100.00;99063.33;135591;1280;22530;-63
2023/04/20 00:59:29;;;;;;;;;;;;;;;10.61;100.00;99065.16;135580;1280;22504;-64
2023/04/20 01:02:32;;;;;;;;;;;;;;;10.48;100.00;99066.26;135609;1280;22505;-63
2023/04/20 01:05:34;;;;;;;;;;;;;;;10.46;100.00;99068.13;135614;1280;22524;-63
2023/04/20 01:08:37;;;;;;;;;;;;;;;10.47;100.00;99064.00;135568;1280;22637;-64
2023/04/20 01:11:39;;;;;;;;;;;;;;;10.47;100.00;99067.57;135564;1280;22528;-66
2023/04/20 01:14:41;;;;;;;;;;;;;;;10.48;100.00;99066.05;135640;1280;22699;-65
2023/04/20 01:17:44;;;;;;;;;;;;;;;10.50;100.00;99068.94;135573;1280;22506;-63
2023/04/20 01:20:46;;;;;;;;;;;;;;;10.46;100.00;99071.44;135608;1280;23011;-64
2023/04/20 01:23:49;;;;;;;;;;;;;;;10.47;100.00;99069.13;135615;1269;22538;-64
2023/04/20 01:26:51;;;;;;;;;;;;;;;10.58;100.00;99065.70;135616;1280;22537;-66
2023/04/20 01:29:54;;;;;;;;;;;;;;;10.66;100.00;99067.64;135561;1280;22532;-65
2023/04/20 01:32:57;;;;;;;;;;;;;;;10.64;100.00;99070.94;135620;1279;22516;-63
2023/04/20 01:35:59;;;;;;;;;;;;;;;10.55;100.00;99064.44;135574;1280;22775;-66
2023/04/20 01:39:02;;;;;;;;;;;;;;;10.64;100.00;99062.52;135567;1280;22501;-66
2023/04/20 01:42:04;;;;;;;;;;;;;;;10.76;100.00;99057.34;135627;1279;22759;-65
2023/04/20 01:45:06;;;;;;;;;;;;;;;10.74;100.00;99057.61;135585;1280;22512;-65
2023/04/20 01:48:09;;;;;;;;;;;;;;;10.65;100.00;99057.25;135347;1279;23376;-63
2023/04/20 01:51:11;;;;;;;;;;;;;;;10.56;100.00;99055.14;135443;1280;22616;-65
2023/04/20 01:54:14;;;;;;;;;;;;;;;10.68;100.00;99059.35;135577;1279;25380;-63
2023/04/20 01:57:16;;;;;;;;;;;;;;;10.76;100.00;99058.70;135588;1280;22508;-64
2023/04/20 02:00:19;;;;;;;;;;;;;;;10.21;100.00;99063.32;135591;1280;23402;-62
2023/04/20 02:03:21;;;;;;;;;;;;;;;10.09;100.00;99062.27;135623;1279;22516;-65
2023/04/20 02:06:23;;;;;;;;;;;;;;;10.07;100.00;99065.52;135621;1266;22505;-63
2023/04/20 02:09:27;;;;;;;;;;;;;;;10.12;100.00;99064.70;135606;1280;22582;-63
2023/04/20 02:12:29;;;;;;;;;;;;;;;10.29;100.00;99063.64;135632;1280;25295;-63
2023/04/20 02:15:32;;;;;;;;;;;;;;;10.39;100.00;99061.52;135549;1262;22538;-64
2023/04/20 02:18:34;;;;;;;;;;;;;;;10.46;100.00;99058.84;135625;1280;22519;-63
2023/04/20 02:21:37;;;;;;;;;;;;;;;10.45;100.00;99059.24;135612;1266;22514;-64
2023/04/20 02:24:40;;;;;;;;;;;;;;;10.46;100.00;99056.42;135608;1280;22508;-63
2023/04/20 02:27:42;;;;;;;;;;;;;;;10.55;100.00;99053.96;135591;1280;22514;-66
2023/04/20 02:30:45;;;;;;;;;;;;;;;10.68;100.00;99051.84;135566;1280;22511;-64
2023/04/20 02:33:48;;;;;;;;;;;;;;;10.67;100.00;99049.59;135589;1279;22532;-63
2023/04/20 02:36:51;;;;;;;;;;;;;;;10.46;100.00;99047.98;135598;1280;22562;-64
2023/04/20 02:39:53;;;;;;;;;;;;;;;10.58;100.00;99051.31;135545;1279;22512;-64
2023/04/20 02:42:56;;;;;;;;;;;;;;;10.65;100.00;99050.06;135545;1280;22510;-64
2023/04/20 02:45:58;;;;;;;;;;;;;;;10.68;100.00;99050.95;135596;1280;22507;-63
2023/04/20 02:49:02;;;;;;;;;;;;;;;10.73;100.00;99050.15;135507;1280;22626;-63
2023/04/20 02:52:04;;;;;;;;;;;;;;;10.79;100.00;99054.33;135542;1280;22534;-63
2023/04/20 02:55:07;;;;;;;;;;;;;;;10.64;100.00;99056.58;135553;1280;22504;-64
2023/04/20 02:58:09;;;;;;;;;;;;;;;10.52;100.00;99061.98;135579;1280;22511;-63
2023/04/20 03:01:12;;;;;;;;;;;;;;;10.04;100.00;99066.20;135548;1265;22508;-64
2023/04/20 03:04:14;;;;;;;;;;;;;;;10.27;100.00;99064.29;135538;1280;22609;-63
2023/04/20 03:07:17;;;;;;;;;;;;;;;10.22;100.00;99063.95;135578;1280;25373;-63
2023/04/20 03:10:19;;;;;;;;;;;;;;;10.30;100.00;99058.67;135489;1280;25207;-63
2023/04/20 03:13:22;;;;;;;;;;;;;;;10.46;100.00;99056.59;135565;1276;22792;-63
2023/04/20 03:16:24;;;;;;;;;;;;;;;10.55;100.00;99054.98;135593;1280;22526;-64
2023/04/20 03:19:27;;;;;;;;;;;;;;;10.71;100.00;99054.62;135600;1280;22538;-63
2023/04/20 03:22:29;;;;;;;;;;;;;;;10.68;100.00;99058.66;135582;1280;22512;-63
2023/04/20 03:25:32;;;;;;;;;;;;;;;10.77;100.00;99058.46;135612;1280;22509;-63
2023/04/20 03:28:34;;;;;;;;;;;;;;;10.88;100.00;99062.40;135551;1280;25373;-63
2023/04/20 03:31:37;;;;;;;;;;;;;;;10.93;100.00;99064.38;135582;1280;22504;-63
2023/04/20 03:34:39;;;;;;;;;;;;;;;10.87;100.00;99065.09;135591;1280;22499;-63
2023/04/20 03:37:42;;;;;;;;;;;;;;;10.83;100.00;99066.34;135604;1279;25434;-63
2023/04/20 03:40:44;;;;;;;;;;;;;;;10.81;100.00;99065.77;135596;1279;22613;-63
2023/04/20 03:43:47;;;;;;;;;;;;;;;10.75;100.00;99073.98;135607;1280;22772;-63
2023/04/20 03:46:49;;;;;;;;;;;;;;;10.49;100.00;99076.88;135581;1279;22527;-64
2023/04/20 03:49:52;;;;;;;;;;;;;;;10.53;100.00;99079.45;135563;1279;22764;-63
2023/04/20 03:52:54;;;;;;;;;;;;;;;10.42;100.00;99077.96;135616;1280;22557;-63
2023/04/20 03:55:57;;;;;;;;;;;;;;;10.32;100.00;99077.41;135540;1280;24025;-63
2023/04/20 03:58:59;;;;;;;;;;;;;;;10.55;100.00;99073.73;135588;1279;26507;-64
2023/04/20 04:02:04;;;;;;;;;;;;;;;10.72;100.00;99074.64;135592;1270;22608;-64
2023/04/20 04:05:07;;;;;;;;;;;;;;;10.69;100.00;99078.04;135555;1280;24373;-63
2023/04/20 04:08:10;;;;;;;;;;;;;;;10.50;100.00;99080.31;135586;1280;24217;-62
2023/04/20 04:11:12;;;;;;;;;;;;;;;10.56;100.00;99079.27;135572;1280;22491;-64
2023/04/20 04:14:15;;;;;;;;;;;;;;;10.86;100.00;99080.33;135585;1279;22544;-63
2023/04/20 04:17:17;;;;;;;;;;;;;;;10.95;100.00;99080.70;135602;1279;22534;-64
2023/04/20 04:20:19;;;;;;;;;;;;;;;11.11;100.00;99075.89;135595;1280;22500;-63
2023/04/20 04:23:22;;;;;;;;;;;;;;;11.17;100.00;99077.99;135572;1280;22593;-63
2023/04/20 04:26:25;;;;;;;;;;;;;;;11.29;100.00;99076.92;135612;1280;22543;-63
2023/04/20 04:29:28;;;;;;;;;;;;;;;11.39;100.00;99075.67;135558;1279;25255;-63
2023/04/20 04:32:30;;;;;;;;;;;;;;;11.38;100.00;99080.77;135613;1280;24243;-64
2023/04/20 04:35:33;;;;;;;;;;;;;;;11.54;100.00;99081.41;135599;1280;22505;-63
2023/04/20 04:38:35;;;;;;;;;;;;;;;11.35;100.00;99082.39;135628;1280;22516;-64
2023/04/20 04:41:38;;;;;;;;;;;;;;;11.29;100.00;99083.79;135564;1280;23851;-63
2023/04/20 04:44:40;;;;;;;;;;;;;;;11.30;100.00;99082.52;135543;1280;22515;-63
2023/04/20 04:47:43;;;;;;;;;;;;;;;11.33;100.00;99082.48;135619;1279;22497;-62
2023/04/20 04:50:45;;;;;;;;;;;;;;;11.32;100.00;99084.48;135586;1280;22519;-64
2023/04/20 04:53:48;;;;;;;;;;;;;;;11.31;100.00;99083.13;135621;1280;22510;-64
2023/04/20 04:56:50;;;;;;;;;;;;;;;11.31;100.00;99082.79;135638;1278;22584;-63
2023/04/20 04:59:53;;;;;;;;;;;;;;;11.34;100.00;99086.48;135620;1280;22589;-63
2023/04/20 05:02:56;;;;;;;;;;;;;;;11.34;100.00;99082.48;135577;1280;22494;-64
2023/04/20 05:05:58;;;;;;;;;;;;;;;11.45;100.00;99087.52;135572;1280;22509;-63
2023/04/20 05:09:01;;;;;;;;;;;;;;;11.46;100.00;99089.61;135619;1280;22519;-64
2023/04/20 05:12:04;;;;;;;;;;;;;;;11.62;100.00;99089.17;135642;1280;22616;-63
2023/04/20 05:15:06;;;;;;;;;;;;;;;11.79;100.00;99088.30;135595;1280;22496;-63
2023/04/20 05:18:08;;;;;;;;;;;;;;;11.83;100.00;99093.29;135625;1280;24080;-62
2023/04/20 05:21:11;;;;;;;;;;;;;;;12.01;100.00;99093.46;135623;1276;24397;-64
2023/04/20 05:24:13;;;;;;;;;;;;;;;12.07;100.00;99098.85;135588;1280;22515;-63
2023/04/20 05:27:16;;;;;;;;;;;;;;;12.35;100.00;99099.17;135609;1280;22508;-64
2023/04/20 05:30:18;;;;;;;;;;;;;;;12.65;100.00;99102.21;135599;1280;22508;-64
2023/04/20 05:33:21;;;;;;;;;;;;;;;12.79;100.00;99105.29;135602;1271;22512;-63
2023/04/20 05:36:23;;;;;;;;;;;;;;;12.87;100.00;99110.56;135598;1280;22550;-63
2023/04/20 05:39:26;;;;;;;;;;;;;;;12.60;100.00;99112.14;135534;1280;22639;-63
2023/04/20 05:42:28;;;;;;;;;;;;;;;12.50;100.00;99110.33;135522;1280;25416;-63
2023/04/20 05:45:32;;;;;;;;;;;;;;;12.69;100.00;99113.15;135536;1280;22539;-64
2023/04/20 05:48:37;;;;;;;;;;;;;;;12.78;100.00;99113.29;135580;1279;22526;-63
2023/04/20 05:51:39;;;;;;;;;;;;;;;12.63;100.00;99115.86;135642;1280;22526;-62
2023/04/20 05:54:42;;;;;;;;;;;;;;;12.79;100.00;99119.87;135623;1280;22488;-64
2023/04/20 05:57:45;;;;;;;;;;;;;;;12.93;100.00;99122.46;135587;1279;23898;-64
2023/04/20 06:00:47;;;;;;;;;;;;;;;13.07;100.00;99122.05;135598;1280;22505;-64
2023/04/20 06:03:50;;;;;;;;;;;;;;;13.35;100.00;99124.64;135632;1280;22527;-63
2023/04/20 06:06:52;;;;;;;;;;;;;;;13.46;100.00;99130.70;135594;1279;22497;-64
2023/04/20 06:09:55;;;;;;;;;;;;;;;13.47;98.94;99132.27;135650;1280;22581;-63
2023/04/20 06:12:57;;;;;;;;;;;;;;;13.57;96.89;99135.99;135592;1280;22520;-62
2023/04/20 06:15:59;;;;;;;;;;;;;;;13.40;98.48;99135.22;135629;1280;22517;-63
2023/04/20 06:19:02;;;;;;;;;;;;;;;13.45;98.58;99137.67;135604;1280;22540;-63
2023/04/20 06:22:04;;;;;;;;;;;;;;;13.41;98.58;99139.70;135635;1279;22526;-62
2023/04/20 06:25:07;;;;;;;;;;;;;;;13.26;100.00;99135.58;135645;1266;22511;-63
2023/04/20 06:28:10;;;;;;;;;;;;;;;13.34;99.55;99136.13;135562;1279;22627;-63
2023/04/20 06:31:12;;;;;;;;;;;;;;;13.40;98.57;99137.32;135608;1280;22776;-63
2023/04/20 06:34:15;;;;;;;;;;;;;;;13.56;96.63;99137.11;135595;1280;22508;-63
2023/04/20 06:37:18;;;;;;;;;;;;;;;13.57;96.07;99137.53;135583;1267;22650;-63
2023/04/20 06:40:20;;;;;;;;;;;;;;;13.62;97.49;99137.36;135541;1280;25215;-63
2023/04/20 06:43:22;;;;;;;;;;;;;;;13.79;97.05;99133.73;135628;1280;25268;-62
2023/04/20 06:46:25;;;;;;;;;;;;;;;13.80;95.07;99137.23;135611;1279;24249;-64
2023/04/20 06:49:27;;;;;;;;;;;;;;;13.74;96.22;99142.89;135574;1280;22536;-64
2023/04/20 06:52:30;;;;;;;;;;;;;;;13.75;96.30;99145.84;135595;1280;22535;-63
2023/04/20 06:55:33;;;;;;;;;;;;;;;13.67;96.98;99147.23;135620;1279;22514;-65
2023/04/20 06:58:35;;;;;;;;;;;;;;;13.70;97.73;99155.80;135569;1280;25288;-65
2023/04/20 07:01:38;;;;;;;;;;;;;;;13.87;95.39;99153.80;135639;1271;22506;-64
2023/04/20 07:04:40;;;;;;;;;;;;;;;14.09;92.70;99151.92;135586;1263;24206;-63
2023/04/20 07:07:42;;;;;;;;;;;;;;;14.27;91.31;99156.60;135631;1279;24356;-63
2023/04/20 07:10:45;;;;;;;;;;;;;;;14.35;91.26;99154.66;135637;1280;22519;-65
2023/04/20 07:13:47;;;;;;;;;;;;;;;14.40;90.73;99156.95;135622;1279;22514;-64
2023/04/20 07:16:50;;;;;;;;;;;;;;;14.43;90.57;99155.14;135643;1279;22509;-63
2023/04/20 07:19:52;;;;;;;;;;;;;;;14.58;90.46;99154.61;135610;1279;22495;-64
2023/04/20 07:22:55;;;;;;;;;;;;;;;14.66;90.38;99151.06;135596;1280;22531;-64
2023/04/20 07:25:57;;;;;;;;;;;;;;;14.75;89.24;99154.45;135586;1279;22543;-63
2023/04/20 07:29:00;;;;;;;;;;;;;;;14.84;89.28;99156.08;135575;1280;22538;-63
2023/04/20 07:32:02;;;;;;;;;;;;;;;14.99;86.54;99157.79;135605;1279;22510;-63
2023/04/20 07:35:05;;;;;;;;;;;;;;;15.07;86.21;99155.80;135580;1263;22507;-65
2023/04/20 07:38:07;;;;;;;;;;;;;;;14.96;86.74;99161.33;135591;1280;22578;-65
2023/04/20 07:41:10;;;;;;;;;;;;;;;15.03;85.41;99166.80;135564;1279;25230;-65
2023/04/20 07:44:12;;;;;;;;;;;;;;;14.98;86.48;99165.61;135545;1279;22514;-63
2023/04/20 07:47:14;;;;;;;;;;;;;;;14.95;86.28;99169.21;135627;1279;22554;-63
2023/04/20 07:50:17;;;;;;;;;;;;;;;15.16;84.48;99162.86;135592;1279;22519;-63
2023/04/20 07:53:19;;;;;;;;;;;;;;;15.26;83.08;99159.31;135575;1279;22540;-63
2023/04/20 07:56:22;;;;;;;;;;;;;;;15.25;82.89;99165.20;135578;1280;22498;-63
2023/04/20 07:59:24;;;;;;;;;;;;;;;15.34;81.76;99167.59;135487;1279;22513;-64
2023/04/20 08:02:27;;;;;;;;;;;;;;;15.48;80.65;99171.93;135539;1279;22527;-64
2023/04/20 08:05:29;;;;;;;;;;;;;;;15.51;78.67;99178.27;135595;1280;22500;-64
2023/04/20 08:08:32;;;;;;;;;;;;;;;15.51;78.05;99182.64;135561;1279;22522;-64
2023/04/20 08:11:34;;;;;;;;;;;;;;;15.31;79.67;99181.49;135525;1279;22498;-64
2023/04/20 08:14:38;;;;;;;;;;;;;;;15.38;79.06;99186.05;135538;1279;22534;-63
2023/04/20 08:17:40;;;;;;;;;;;;;;;15.35;77.44;99186.30;135568;1271;22497;-64
2023/04/20 08:20:44;;;;;;;;;;;;;;;15.24;74.79;99190.64;135495;1279;22512;-62
2023/04/20 08:23:47;;;;;;;;;;;;;;;14.99;75.43;99188.58;135567;1261;22513;-64
2023/04/20 08:26:49;;;;;;;;;;;;;;;14.92;77.47;99191.73;135559;1262;22540;-63
2023/04/20 08:29:52;;;;;;;;;;;;;;;14.91;76.49;99198.70;135546;1280;22540;-63
2023/04/20 08:32:54;;;;;;;;;;;;;;;14.86;76.86;99201.36;135590;1279;22530;-63
2023/04/20 08:35:57;;;;;;;;;;;;;;;14.73;77.00;99201.96;135561;1279;25443;-64
2023/04/20 08:39:00;;;;;;;;;;;;;;;14.70;77.85;99202.65;135570;1280;22504;-64
2023/04/20 08:42:02;;;;;;;;;;;;;;;14.74;78.30;99201.88;135552;1263;22532;-63
2023/04/20 08:45:04;;;;;;;;;;;;;;;14.75;77.91;99205.29;135561;1279;22510;-64
2023/04/20 08:48:07;;;;;;;;;;;;;;;14.82;78.70;99203.39;135597;1280;22499;-63
2023/04/20 08:51:09;;;;;;;;;;;;;;;14.97;79.02;99209.40;135543;1279;22521;-62
2023/04/20 08:54:12;;;;;;;;;;;;;;;15.21;77.21;99205.33;135562;1279;22657;-64
2023/04/20 08:57:14;;;;;;;;;;;;;;;15.56;76.04;99203.74;135605;1280;22504;-62
2023/04/20 09:00:17;;;;;;;;;;;;;;;15.69;76.44;99202.28;135577;1279;22533;-63
2023/04/20 09:03:20;;;;;;;;;;;;;;;15.76;76.65;99202.78;135588;1279;22500;-64
2023/04/20 09:06:22;;;;;;;;;;;;;;;15.74;77.92;99205.95;135549;1280;22512;-63
2023/04/20 09:09:26;;;;;;;;;;;;;;;15.62;75.20;99210.17;135577;1279;22516;-63
2023/04/20 09:12:29;;;;;;;;;;;;;;;15.35;79.16;99206.56;135585;1266;22543;-64
2023/04/20 09:15:31;;;;;;;;;;;;;;;15.40;80.44;99211.47;135548;1279;22504;-63
2023/04/20 09:18:36;;;;;;;;;;;;;;;15.40;82.31;99212.70;135577;1279;22514;-63
2023/04/20 09:21:39;;;;;;;;;;;;;;;15.25;82.90;99215.39;135547;1279;22535;-63
2023/04/20 09:24:41;;;;;;;;;;;;;;;15.63;81.27;99213.85;135609;1280;22502;-64
2023/04/20 09:27:44;;;;;;;;;;;;;;;16.23;79.57;99212.45;135552;1280;22517;-63
2023/04/20 09:30:46;;;;;;;;;;;;;;;16.49;76.90;99213.59;135561;1279;22510;-62
2023/04/20 09:33:48;;;;;;;;;;;;;;;17.36;77.38;99217.14;135538;1260;24356;-63
2023/04/20 09:36:52;;;;;;;;;;;;;;;18.17;70.95;99213.58;135562;1279;22508;-63
2023/04/20 09:39:55;;;;;;;;;;;;;;;18.69;73.32;99209.79;135592;1260;22507;-62
2023/04/20 09:42:57;;;;;;;;;;;;;;;19.07;68.40;99211.34;135540;1279;22514;-62
2023/04/20 09:46:00;;;;;;;;;;;;;;;19.06;64.88;99205.84;135521;1279;22512;-63
2023/04/20 09:49:03;;;;;;;;;;;;;;;19.22;61.75;99203.13;135590;1279;22500;-63
2023/04/20 09:52:05;;;;;;;;;;;;;;;19.26;63.41;99202.21;135565;1279;22546;-64
2023/04/20 09:55:08;;;;;;;;;;;;;;;19.44;64.57;99200.95;135544;1279;22519;-63
2023/04/20 09:58:10;;;;;;;;;;;;;;;19.66;62.17;99197.10;135532;1279;22506;-62
2023/04/20 10:01:13;;;;;;;;;;;;;;;19.44;60.93;99194.53;135544;1279;22535;-63
2023/04/20 10:04:15;;;;;;;;;;;;;;;19.78;61.43;99194.24;135558;1279;22505;-63
2023/04/20 10:07:17;;;;;;;;;;;;;;;20.17;60.80;99188.67;135568;1279;22500;-62
2023/04/20 10:10:20;;;;;;;;;;;;;;;20.14;60.57;99181.14;135506;1279;22526;-63
2023/04/20 10:13:22;;;;;;;;;;;;;;;20.51;58.33;99184.17;135588;1279;22518;-64
2023/04/20 10:16:25;;;;;;;;;;;;;;;20.70;56.12;99182.16;135550;1279;22529;-64
2023/04/20 10:19:27;;;;;;;;;;;;;;;20.79;58.68;99184.55;135558;1279;25375;-63
2023/04/20 10:22:32;;;;;;;;;;;;;;;21.35;58.07;99176.70;135542;1280;24484;-62
2023/04/20 10:25:34;;;;;;;;;;;;;;;22.08;58.40;99172.89;135490;1280;22505;-64
2023/04/20 10:28:38;;;;;;;;;;;;;;;22.51;58.92;99167.58;135500;1280;22514;-64
2023/04/20 10:31:40;;;;;;;;;;;;;;;22.98;55.84;99164.86;135549;1279;22515;-64
2023/04/20 10:34:43;;;;;;;;;;;;;;;23.38;56.09;99161.83;135533;1280;22546;-63
2023/04/20 10:37:45;;;;;;;;;;;;;;;23.55;49.26;99159.67;135509;1280;22518;-63
2023/04/20 10:40:48;;;;;;;;;;;;;;;22.62;47.98;99157.07;135478;1279;22502;-63
2023/04/20 10:43:50;;;;;;;;;;;;;;;21.96;47.39;99154.66;135480;1279;22555;-64
2023/04/20 10:46:53;;;;;;;;;;;;;;;21.74;50.73;99160.69;135530;1279;22534;-64
2023/04/20 10:49:55;;;;;;;;;;;;;;;22.12;52.21;99155.36;135485;1280;22517;-64
2023/04/20 10:52:58;;;;;;;;;;;;;;;22.79;51.71;99152.36;135491;1279;25460;-66
2023/04/20 10:56:00;;;;;;;;;;;;;;;22.56;52.38;99146.71;135457;1279;22514;-64
2023/04/20 10:59:03;;;;;;;;;;;;;;;22.70;51.12;99144.72;135503;1279;22558;-64
2023/04/20 11:02:05;;;;;;;;;;;;;;;21.97;48.64;99146.88;135558;1279;22564;-64
2023/04/20 11:05:08;;;;;;;;;;;;;;;21.28;50.52;99149.52;135513;1280;22486;-65
2023/04/20 11:08:10;;;;;;;;;;;;;;;20.66;50.12;99150.19;135490;1279;22487;-64
2023/04/20 11:11:13;;;;;;;;;;;;;;;19.92;52.07;99147.36;135497;1279;22508;-63
2023/04/20 11:14:15;;;;;;;;;;;;;;;19.40;52.97;99151.30;135474;1279;22521;-62
2023/04/20 11:17:18;;;;;;;;;;;;;;;19.09;54.42;99152.02;135546;1279;24262;-63
2023/04/20 11:20:20;;;;;;;;;;;;;;;19.13;54.96;99149.88;135490;1279;22504;-64
2023/04/20 11:23:23;;;;;;;;;;;;;;;19.52;53.79;99152.72;135545;1270;22611;-64
2023/04/20 11:26:25;;;;;;;;;;;;;;;19.53;54.44;99148.11;135511;1280;22527;-64
2023/04/20 11:29:29;;;;;;;;;;;;;;;19.74;54.22;99144.09;135546;1279;22515;-63
2023/04/20 11:32:31;;;;;;;;;;;;;;;20.13;55.45;99142.73;135499;1279;22546;-64
2023/04/20 11:35:33;;;;;;;;;;;;;;;21.29;55.17;99138.86;135528;1279;22514;-64
2023/04/20 11:38:36;;;;;;;;;;;;;;;22.20;55.19;99131.23;135506;1264;24366;-64
2023/04/20 11:41:41;;;;;;;;;;;;;;;23.10;52.56;99130.08;135540;1279;22519;-63
2023/04/20 11:44:43;;;;;;;;;;;;;;;23.15;50.32;99134.61;135514;1279;22544;-63
2023/04/20 11:47:46;;;;;;;;;;;;;;;22.79;48.80;99138.96;135506;1280;22521;-64
2023/04/20 11:50:48;;;;;;;;;;;;;;;22.10;48.72;99138.88;135460;1278;22519;-64
2023/04/20 11:53:50;;;;;;;;;;;;;;;21.67;50.91;99142.55;135513;1262;22611;-63
2023/04/20 11:56:53;;;;;;;;;;;;;;;20.95;51.75;99144.80;135492;1280;22510;-64
2023/04/20 11:59:55;;;;;;;;;;;;;;;20.82;51.43;99142.65;135532;1279;24384;-63
2023/04/20 12:02:58;;;;;;;;;;;;;;;20.66;51.23;99141.58;131400;1280;5373091;-64
2023/04/20 12:06:01;;;;;;;;;;;;;;;20.49;50.48;99142.98;135520;1280;22584;-64
2023/04/20 12:09:05;;;;;;;;;;;;;;;20.55;51.29;99139.95;135500;1279;22511;-64
2023/04/20 12:12:10;;;;;;;;;;;;;;;20.54;51.67;99141.77;135468;1279;24325;-64
2023/04/20 12:15:12;;;;;;;;;;;;;;;20.81;50.62;99135.98;135496;1279;22524;-64
2023/04/20 12:18:15;;;;;;;;;;;;;;;20.95;50.84;99136.25;135497;1280;22519;-63
2023/04/20 12:21:17;;;;;;;;;;;;;;;20.84;51.02;99131.61;135481;1279;22504;-63
2023/04/20 12:24:19;;;;;;;;;;;;;;;21.04;50.66;99130.39;135482;1262;22517;-63
2023/04/20 12:27:24;;;;;;;;;;;;;;;21.03;48.80;99132.38;135519;1262;22515;-64
2023/04/20 12:30:26;;;;;;;;;;;;;;;20.78;47.36;99121.02;135549;1280;24394;-64
2023/04/20 12:33:30;;;;;;;;;;;;;;;20.72;48.20;99119.80;135509;1279;22539;-63
2023/04/20 12:36:33;;;;;;;;;;;;;;;20.50;47.00;99115.42;135504;1279;22507;-64
2023/04/20 12:39:36;;;;;;;;;;;;;;;20.52;48.92;99117.49;135543;1280;22507;-63
2023/04/20 12:42:39;;;;;;;;;;;;;;;20.58;47.79;99112.48;135527;1270;22561;-64
2023/04/20 12:45:41;;;;;;;;;;;;;;;20.41;46.92;99113.36;135537;1279;22524;-64
2023/04/20 12:48:44;;;;;;;;;;;;;;;20.45;48.45;99109.16;135485;1262;22516;-64
2023/04/20 12:51:47;;;;;;;;;;;;;;;20.54;47.18;99106.77;135461;1279;22523;-64
2023/04/20 12:54:50;;;;;;;;;;;;;;;20.53;45.26;99107.08;135493;1279;22529;-63
2023/04/20 12:57:52;;;;;;;;;;;;;;;20.40;44.31;99104.25;135523;1279;22507;-64
2023/04/20 13:00:55;;;;;;;;;;;;;;;20.19;43.63;99109.54;135533;1279;22523;-63
2023/04/20 13:03:57;;;;;;;;;;;;;;;20.04;45.04;99104.67;135487;1279;25290;-63
2023/04/20 13:07:00;;;;;;;;;;;;;;;20.48;45.84;99098.89;135482;1279;22527;-64
2023/04/20 13:10:02;;;;;;;;;;;;;;;21.25;46.18;99098.38;135529;1279;22554;-66
2023/04/20 13:13:05;;;;;;;;;;;;;;;21.77;46.04;99094.38;135509;1278;22773;-64
2023/04/20 13:16:07;;;;;;;;;;;;;;;21.90;43.89;99090.18;135486;1279;22530;-65
2023/04/20 13:19:09;;;;;;;;;;;;;;;21.70;44.86;99090.80;135466;1279;22520;-65
2023/04/20 13:22:12;;;;;;;;;;;;;;;21.61;44.60;99088.95;135473;1279;22518;-64
2023/04/20 13:25:14;;;;;;;;;;;;;;;21.53;43.93;99090.95;135517;1270;22620;-64
2023/04/20 13:28:17;;;;;;;;;;;;;;;21.22;43.99;99093.14;135513;1279;22551;-64
2023/04/20 13:31:19;;;;;;;;;;;;;;;21.03;41.03;99093.07;135441;1279;22518;-63
2023/04/20 13:34:22;;;;;;;;;;;;;;;20.87;43.17;99091.85;135465;1279;25344;-64
2023/04/20 13:37:24;;;;;;;;;;;;;;;21.00;43.23;99097.66;135409;1279;22511;-64
2023/04/20 13:40:26;;;;;;;;;;;;;;;20.88;41.61;99097.12;135519;1262;25563;-64
2023/04/20 13:43:29;;;;;;;;;;;;;;;21.21;41.53;99096.98;135510;1279;22511;-65
2023/04/20 13:46:31;;;;;;;;;;;;;;;21.69;43.15;99094.25;135496;1279;22520;-66
2023/04/20 13:49:34;;;;;;;;;;;;;;;22.22;42.27;99093.73;135514;1279;24356;-65
2023/04/20 13:52:36;;;;;;;;;;;;;;;22.12;40.01;99089.27;135509;1279;25279;-64
2023/04/20 13:55:39;;;;;;;;;;;;;;;22.01;41.69;99088.31;135555;1279;23624;-63
2023/04/20 13:58:41;;;;;;;;;;;;;;;22.08;42.39;99085.05;135486;1262;22507;-64
2023/04/20 14:01:44;;;;;;;;;;;;;;;22.19;40.29;99084.46;135545;1279;22600;-64
2023/04/20 14:04:46;;;;;;;;;;;;;;;22.41;40.99;99085.78;135522;1279;22585;-64
2023/04/20 14:07:49;;;;;;;;;;;;;;;22.61;40.45;99084.36;135516;1279;22528;-63
2023/04/20 14:10:51;;;;;;;;;;;;;;;22.96;42.02;99081.71;135276;1279;22616;-65
2023/04/20 14:13:53;;;;;;;;;;;;;;;23.65;40.67;99075.05;135532;1279;22505;-64
2023/04/20 14:16:56;;;;;;;;;;;;;;;24.11;38.87;99072.33;135490;1279;22519;-65
2023/04/20 14:19:58;;;;;;;;;;;;;;;24.45;38.99;99068.66;135551;1279;22511;-64
2023/04/20 14:23:01;;;;;;;;;;;;;;;24.29;38.49;99068.38;135449;1279;22503;-63
2023/04/20 14:26:03;;;;;;;;;;;;;;;23.80;38.04;99067.48;135557;1279;23570;-63
2023/04/20 14:29:06;;;;;;;;;;;;;;;23.11;37.55;99068.30;135530;1279;22602;-64
2023/04/20 14:32:08;;;;;;;;;;;;;;;22.11;37.71;99068.77;135506;1279;22529;-64
2023/04/20 14:35:11;;;;;;;;;;;;;;;21.35;38.96;99070.65;135539;1279;22519;-63
2023/04/20 14:38:13;;;;;;;;;;;;;;;20.71;39.70;99069.94;135549;1262;22624;-64
2023/04/20 14:41:16;;;;;;;;;;;;;;;20.37;40.05;99069.42;135547;1279;22518;-63
2023/04/20 14:44:18;;;;;;;;;;;;;;;19.96;40.49;99072.23;135492;1279;22512;-64
2023/04/20 14:47:20;;;;;;;;;;;;;;;19.67;41.85;99069.17;135527;1279;22536;-64
2023/04/20 14:50:23;;;;;;;;;;;;;;;19.57;42.10;99066.34;135487;1279;22536;-64
2023/04/20 14:53:27;;;;;;;;;;;;;;;19.44;42.43;99066.70;135552;1262;22520;-64
2023/04/20 14:56:29;;;;;;;;;;;;;;;19.36;42.64;99071.16;135532;1265;22503;-63
2023/04/20 14:59:31;;;;;;;;;;;;;;;19.30;42.91;99075.14;135539;1279;22616;-64
2023/04/20 15:02:34;;;;;;;;;;;;;;;19.30;43.61;99078.60;135531;1279;22530;-64
2023/04/20 15:05:36;;;;;;;;;;;;;;;19.33;43.85;99081.06;135542;1279;22527;-65
2023/04/20 15:08:39;;;;;;;;;;;;;;;19.42;43.91;99079.33;135551;1279;22507;-64
2023/04/20 15:11:41;;;;;;;;;;;;;;;19.55;43.68;99079.85;135572;1279;22500;-65
2023/04/20 15:14:44;;;;;;;;;;;;;;;19.67;43.10;99078.39;135566;1279;25393;-64
2023/04/20 15:17:46;;;;;;;;;;;;;;;19.80;42.59;99078.89;135535;1257;22572;-64
2023/04/20 15:20:48;;;;;;;;;;;;;;;19.51;43.04;99078.66;135509;1262;23211;-65
2023/04/20 15:23:51;;;;;;;;;;;;;;;19.39;43.15;99075.34;135573;1279;22530;-64
2023/04/20 15:26:53;;;;;;;;;;;;;;;19.38;43.46;99074.14;135546;1279;22609;-63
2023/04/20 15:29:57;;;;;;;;;;;;;;;19.22;43.33;99079.06;135534;1279;22510;-64
2023/04/20 15:32:59;;;;;;;;;;;;;;;19.07;43.88;99075.98;135519;1279;22518;-64